createdAt,value
2023-01-23T00:00:00.781Z,103821.69
2023-01-23T00:02:27.830Z,103815.69
2023-01-23T00:04:54.243Z,103820.91
2023-01-23T00:07:20.675Z,103826.09
2023-01-23T00:09:47.132Z,103831.25
2023-01-23T00:12:13.495Z,103831.25
2023-01-23T00:14:39.856Z,103829.50
2023-01-23T00:17:06.243Z,103831.19
2023-01-23T00:19:32.627Z,103830.31
2023-01-23T00:22:00.767Z,103829.44
2023-01-23T00:24:27.461Z,103834.63
2023-01-23T00:26:53.840Z,103838.06
2023-01-23T00:29:20.252Z,103832.81
2023-01-23T00:31:46.818Z,103830.25
2023-01-23T00:34:15.056Z,103833.75
2023-01-23T00:36:43.226Z,103828.59
2023-01-23T00:39:17.828Z,103831.19
2023-01-23T00:41:46.270Z,103837.19
2023-01-23T00:44:12.889Z,103828.50
2023-01-23T00:46:39.485Z,103840.66
2023-01-23T00:49:06.739Z,103823.25
2023-01-23T00:51:33.892Z,103828.50
2023-01-23T00:54:00.883Z,103816.44
2023-01-23T00:56:27.356Z,103819.03
2023-01-23T00:58:53.889Z,103825.97
2023-01-23T01:01:22.676Z,103832.97
2023-01-23T01:03:49.611Z,103831.19
2023-01-23T01:06:16.081Z,103817.31
2023-01-23T01:08:42.423Z,103814.75
2023-01-23T01:11:08.982Z,103815.66
2023-01-23T01:13:36.125Z,103815.66
2023-01-23T01:16:02.751Z,103813.91
2023-01-23T01:18:29.747Z,103814.75
2023-01-23T01:20:56.909Z,103806.94
2023-01-23T01:23:23.242Z,103806.94
2023-01-23T01:25:49.618Z,103812.13
2023-01-23T01:28:16.054Z,103819.06
2023-01-23T01:30:42.481Z,103811.28
2023-01-23T01:33:08.883Z,103815.56
2023-01-23T01:35:35.323Z,103826.84
2023-01-23T01:38:01.787Z,103824.25
2023-01-23T01:40:33.626Z,103832.97
2023-01-23T01:43:03.537Z,103832.88
2023-01-23T01:46:07.122Z,103829.38
2023-01-23T01:48:36.604Z,103821.59
2023-01-23T01:51:10.152Z,103818.13
2023-01-23T01:53:38.235Z,103812.97
2023-01-23T01:56:05.991Z,103825.09
2023-01-23T01:58:32.389Z,103823.41
2023-01-23T02:00:58.879Z,103832.06
2023-01-23T02:03:26.233Z,103826.91
2023-01-23T02:05:52.743Z,103827.78
2023-01-23T02:08:35.437Z,103834.69
2023-01-23T02:11:03.431Z,103836.44
2023-01-23T02:13:36.950Z,103831.25
2023-01-23T02:16:09.587Z,103836.44
2023-01-23T02:18:42.570Z,103826.97
2023-01-23T02:21:09.558Z,103832.09
2023-01-23T02:23:52.050Z,103833.84
2023-01-23T02:26:23.596Z,103845.97
2023-01-23T02:28:52.378Z,103834.69
2023-01-23T02:31:19.876Z,103845.97
2023-01-23T02:33:50.298Z,103843.41
2023-01-23T02:36:18.742Z,103834.75
2023-01-23T02:38:54.685Z,103844.25
2023-01-23T02:41:31.011Z,103848.59
2023-01-23T02:44:02.083Z,103846.81
2023-01-23T02:46:28.557Z,103848.59
2023-01-23T02:48:55.004Z,103853.78
2023-01-23T02:51:22.196Z,103860.72
2023-01-23T02:53:48.990Z,103865.00
2023-01-23T02:56:15.531Z,103869.38
2023-01-23T02:59:01.683Z,103862.47
2023-01-23T03:01:28.090Z,103864.22
2023-01-23T03:03:57.384Z,103862.47
2023-01-23T03:06:24.410Z,103865.06
2023-01-23T03:08:50.918Z,103865.06
2023-01-23T03:11:18.707Z,103859.88
2023-01-23T03:13:46.695Z,103865.91
2023-01-23T03:16:13.284Z,103862.41
2023-01-23T03:18:52.694Z,103865.91
2023-01-23T03:21:19.407Z,103863.31
2023-01-23T03:23:47.727Z,103860.72
2023-01-23T03:26:15.108Z,103869.31
2023-01-23T03:28:59.904Z,103855.44
2023-01-23T03:31:26.323Z,103862.38
2023-01-23T03:33:53.371Z,103859.78
2023-01-23T03:36:19.951Z,103865.00
2023-01-23T03:39:04.845Z,103869.31
2023-01-23T03:41:31.265Z,103867.59
2023-01-23T03:43:57.657Z,103865.06
2023-01-23T03:46:24.131Z,103856.44
2023-01-23T03:48:50.782Z,103863.34
2023-01-23T03:51:17.196Z,103861.63
2023-01-23T03:53:43.623Z,103866.81
2023-01-23T03:56:10.025Z,103863.38
2023-01-23T03:58:36.454Z,103866.88
2023-01-23T04:01:06.606Z,103865.97
2023-01-23T04:03:32.987Z,103875.47
2023-01-23T04:05:59.725Z,103866.81
2023-01-23T04:08:26.190Z,103872.06
2023-01-23T04:11:01.353Z,103867.72
2023-01-23T04:13:27.743Z,103867.75
2023-01-23T04:15:54.124Z,103875.53
2023-01-23T04:18:20.533Z,103869.50
2023-01-23T04:20:47.478Z,103877.28
2023-01-23T04:23:13.943Z,103877.25
2023-01-23T04:25:40.304Z,103885.06
2023-01-23T04:28:06.706Z,103879.88
2023-01-23T04:30:33.204Z,103882.44
2023-01-23T04:32:59.660Z,103881.53
2023-01-23T04:35:26.275Z,103881.53
2023-01-23T04:37:52.764Z,103884.13
2023-01-23T04:40:19.701Z,103884.13
2023-01-23T04:42:46.210Z,103877.25
2023-01-23T04:45:12.619Z,103887.66
2023-01-23T04:47:38.970Z,103877.31
2023-01-23T04:50:05.489Z,103887.66
2023-01-23T04:52:32.135Z,103879.88
2023-01-23T04:54:58.589Z,103882.50
2023-01-23T04:57:24.949Z,103879.03
2023-01-23T04:59:51.356Z,103877.31
2023-01-23T05:02:17.863Z,103880.78
2023-01-23T05:04:44.376Z,103874.69
2023-01-23T05:07:12.276Z,103889.44
2023-01-23T05:09:40.560Z,103882.53
2023-01-23T05:12:07.109Z,103892.03
2023-01-23T05:14:33.468Z,103888.56
2023-01-23T05:16:59.818Z,103892.91
2023-01-23T05:19:26.201Z,103899.84
2023-01-23T05:21:52.531Z,103900.69
2023-01-23T05:24:18.912Z,103893.81
2023-01-23T05:26:45.304Z,103899.00
2023-01-23T05:29:11.659Z,103903.38
2023-01-23T05:31:38.098Z,103902.44
2023-01-23T05:34:04.620Z,103904.19
2023-01-23T05:36:31.042Z,103902.44
2023-01-23T05:38:57.629Z,103904.19
2023-01-23T05:41:25.654Z,103911.97
2023-01-23T05:43:52.238Z,103909.38
2023-01-23T05:46:18.642Z,103906.81
2023-01-23T05:48:49.075Z,103906.81
2023-01-23T05:51:15.476Z,103908.56
2023-01-23T05:53:41.908Z,103905.97
2023-01-23T05:56:08.620Z,103904.19
2023-01-23T05:58:35.052Z,103902.44
2023-01-23T06:01:04.905Z,103903.28
2023-01-23T06:03:31.376Z,103900.69
2023-01-23T06:05:57.812Z,103898.94
2023-01-23T06:08:24.175Z,103904.97
2023-01-23T06:10:50.991Z,103901.44
2023-01-23T06:13:17.323Z,103904.03
2023-01-23T06:15:43.695Z,103903.19
2023-01-23T06:18:10.154Z,103900.66
2023-01-23T06:20:36.491Z,103909.31
2023-01-23T06:23:02.902Z,103907.56
2023-01-23T06:25:29.284Z,103910.16
2023-01-23T06:27:55.629Z,103911.06
2023-01-23T06:30:22.288Z,103923.19
2023-01-23T06:32:48.802Z,103919.72
2023-01-23T06:35:15.308Z,103932.69
2023-01-23T06:37:41.797Z,103940.50
2023-01-23T06:40:12.983Z,103938.75
2023-01-23T06:42:40.269Z,103940.50
2023-01-23T06:45:07.998Z,103936.97
2023-01-23T06:47:34.422Z,103950.88
2023-01-23T06:50:02.371Z,103958.69
2023-01-23T06:52:29.701Z,103960.44
2023-01-23T06:54:56.177Z,103951.81
2023-01-23T06:57:22.824Z,103950.94
2023-01-23T06:59:49.420Z,103955.31
2023-01-23T07:02:15.819Z,103954.47
2023-01-23T07:04:42.283Z,103942.34
2023-01-23T07:07:08.921Z,103945.75
2023-01-23T07:09:35.316Z,103935.38
2023-01-23T07:12:01.716Z,103934.53
2023-01-23T07:14:28.666Z,103937.09
2023-01-23T07:16:55.650Z,103937.13
2023-01-23T07:19:22.104Z,103943.97
2023-01-23T07:21:49.251Z,103936.25
2023-01-23T07:24:15.608Z,103936.25
2023-01-23T07:26:42.012Z,103944.09
2023-01-23T07:29:10.924Z,103945.75
2023-01-23T07:31:37.537Z,103946.66
2023-01-23T07:34:04.010Z,103951.06
2023-01-23T07:36:30.372Z,103961.44
2023-01-23T07:38:58.877Z,103959.72
2023-01-23T07:41:25.646Z,103951.91
2023-01-23T07:43:52.018Z,103947.63
2023-01-23T07:46:18.422Z,103947.63
2023-01-23T07:48:44.879Z,103949.28
2023-01-23T07:51:12.040Z,103964.06
2023-01-23T07:53:38.508Z,103967.59
2023-01-23T07:56:06.068Z,103978.75
2023-01-23T07:58:32.703Z,103996.03
2023-01-23T08:00:59.525Z,104004.75
2023-01-23T08:03:29.801Z,104003.97
2023-01-23T08:05:56.148Z,104007.38
2023-01-23T08:08:22.468Z,104008.31
2023-01-23T08:10:48.795Z,104003.16
2023-01-23T08:13:15.169Z,103993.66
2023-01-23T08:15:41.521Z,104003.16
2023-01-23T08:18:07.924Z,104005.81
2023-01-23T08:20:34.338Z,103993.75
2023-01-23T08:23:02.228Z,104001.56
2023-01-23T08:25:28.723Z,104002.50
2023-01-23T08:27:55.095Z,104000.78
2023-01-23T08:30:21.970Z,104012.03
2023-01-23T08:32:48.598Z,104016.38
2023-01-23T08:35:15.296Z,104007.81
2023-01-23T08:37:42.254Z,104008.72
2023-01-23T08:40:09.456Z,104013.09
2023-01-23T08:42:35.836Z,104006.22
2023-01-23T08:45:02.137Z,104007.09
2023-01-23T08:47:28.540Z,104006.22
2023-01-23T08:49:54.864Z,104007.94
2023-01-23T08:52:21.256Z,104004.50
2023-01-23T08:54:47.695Z,104005.38
2023-01-23T08:57:14.032Z,104012.34
2023-01-23T08:59:42.457Z,104016.72
2023-01-23T09:02:12.616Z,104028.91
2023-01-23T09:04:39.136Z,104034.94
2023-01-23T09:07:05.473Z,104038.38
2023-01-23T09:09:31.869Z,104038.38
2023-01-23T09:11:58.347Z,104037.50
2023-01-23T09:14:24.764Z,104034.13
2023-01-23T09:16:51.379Z,104033.28
2023-01-23T09:19:17.811Z,104040.25
2023-01-23T09:21:44.508Z,104030.69
2023-01-23T09:24:10.863Z,104038.53
2023-01-23T09:26:37.643Z,104035.13
2023-01-23T09:29:03.994Z,104030.81
2023-01-23T09:31:30.894Z,104031.69
2023-01-23T09:33:57.706Z,104036.09
2023-01-23T09:36:41.314Z,104037.84
2023-01-23T09:39:08.909Z,104043.94
2023-01-23T09:41:35.437Z,104042.25
2023-01-23T09:44:09.237Z,104051.00
2023-01-23T09:46:50.116Z,104047.50
2023-01-23T09:49:28.546Z,104052.72
2023-01-23T09:52:24.489Z,104051.88
2023-01-23T09:54:59.903Z,104044.06
2023-01-23T09:57:29.879Z,104049.31
2023-01-23T10:00:05.040Z,104049.31
2023-01-23T10:02:31.544Z,104046.69
2023-01-23T10:04:59.527Z,104057.97
2023-01-23T10:07:47.681Z,104063.16
2023-01-23T10:10:23.953Z,104058.88
2023-01-23T10:13:03.904Z,104057.22
2023-01-23T10:16:12.157Z,104067.66
2023-01-23T10:19:14.852Z,104053.88
2023-01-23T10:21:53.593Z,104049.63
2023-01-23T10:24:40.579Z,104052.25
2023-01-23T10:27:42.069Z,104044.47
2023-01-23T10:30:11.920Z,104047.06
2023-01-23T10:32:49.445Z,104044.47
2023-01-23T10:35:22.567Z,104042.78
2023-01-23T10:37:59.896Z,104033.31
2023-01-23T10:40:45.143Z,104031.63
2023-01-23T10:43:22.004Z,104029.91
2023-01-23T10:45:50.070Z,104035.13
2023-01-23T10:48:39.242Z,104039.50
2023-01-23T10:51:24.817Z,104037.00
2023-01-23T10:54:06.622Z,104040.41
2023-01-23T10:56:36.274Z,104046.53
2023-01-23T10:59:05.408Z,104043.06
2023-01-23T11:01:34.086Z,104047.44
2023-01-23T11:04:18.473Z,104048.38
2023-01-23T11:07:00.038Z,104041.41
2023-01-23T11:09:26.391Z,104042.22
2023-01-23T11:12:00.807Z,104044.81
2023-01-23T11:14:27.279Z,104046.59
2023-01-23T11:17:17.555Z,104047.44
2023-01-23T11:19:47.062Z,104046.63
2023-01-23T11:22:45.271Z,104042.38
2023-01-23T11:25:37.216Z,104037.16
2023-01-23T11:28:35.025Z,104039.75
2023-01-23T11:31:16.032Z,104038.84
2023-01-23T11:33:59.332Z,104041.41
2023-01-23T11:36:47.386Z,104049.25
2023-01-23T11:39:40.160Z,104043.22
2023-01-23T11:42:11.439Z,104048.47
2023-01-23T11:44:45.886Z,104049.38
2023-01-23T11:47:50.499Z,104054.72
2023-01-23T11:50:41.014Z,104047.91
2023-01-23T11:53:33.500Z,104046.19
2023-01-23T11:56:29.538Z,104048.00
2023-01-23T11:59:09.714Z,104039.38
2023-01-23T12:02:04.167Z,104042.91
2023-01-23T12:04:39.560Z,104038.63
2023-01-23T12:07:21.433Z,104030.81
2023-01-23T12:10:16.501Z,104031.78
2023-01-23T12:13:04.748Z,104027.50
2023-01-23T12:16:06.421Z,104027.56
2023-01-23T12:18:52.644Z,104017.25
2023-01-23T12:21:25.867Z,104025.88
2023-01-23T12:24:16.641Z,104034.53
2023-01-23T12:27:10.087Z,104027.69
2023-01-23T12:29:52.923Z,104021.63
2023-01-23T12:32:35.361Z,104024.25
2023-01-23T12:35:33.508Z,104026.88
2023-01-23T12:38:11.651Z,104031.28
2023-01-23T12:40:52.714Z,104028.72
2023-01-23T12:43:40.176Z,104027.03
2023-01-23T12:46:45.847Z,104024.47
2023-01-23T12:49:38.766Z,104033.19
2023-01-23T12:52:23.931Z,104035.81
2023-01-23T12:55:03.247Z,104035.81
2023-01-23T12:57:52.689Z,104032.38
2023-01-23T13:00:43.739Z,104039.34
2023-01-23T13:03:31.303Z,104037.63
2023-01-23T13:06:29.277Z,104035.13
2023-01-23T13:09:16.776Z,104035.13
2023-01-23T13:12:21.549Z,104037.66
2023-01-23T13:15:12.797Z,104035.94
2023-01-23T13:17:38.920Z,104031.63
2023-01-23T13:20:48.201Z,104033.34
2023-01-23T13:23:32.461Z,104036.81
2023-01-23T13:26:20.654Z,104045.50
2023-01-23T13:28:51.376Z,104041.19
2023-01-23T13:31:37.647Z,104042.91
2023-01-23T13:34:24.783Z,104045.50
2023-01-23T13:36:53.137Z,104038.56
2023-01-23T13:39:28.257Z,104047.25
2023-01-23T13:42:13.781Z,104045.53
2023-01-23T13:45:27.017Z,104049.84
2023-01-23T14:22:15.541Z,103984.09
2023-01-23T14:24:48.872Z,103979.78
2023-01-23T14:27:30.480Z,103971.09
2023-01-23T14:29:59.150Z,103982.38
2023-01-23T14:32:28.208Z,103986.72
2023-01-23T14:34:54.612Z,103983.22
2023-01-23T14:37:21.327Z,103980.66
2023-01-23T14:39:52.992Z,103970.22
2023-01-23T14:42:31.235Z,103968.47
2023-01-23T14:45:01.981Z,103981.44
2023-01-23T14:47:34.335Z,103977.09
2023-01-23T14:50:02.440Z,103984.91
2023-01-23T14:52:30.993Z,103990.09
2023-01-23T14:55:03.162Z,103995.28
2023-01-23T14:57:34.053Z,103994.44
2023-01-23T15:00:00.469Z,103991.81
2023-01-23T15:02:31.092Z,104002.19
2023-01-23T15:05:12.716Z,103984.91
2023-01-23T15:07:45.067Z,103989.19
2023-01-23T15:10:22.279Z,103994.41
2023-01-23T15:12:59.008Z,103996.13
2023-01-23T15:15:27.091Z,103997.81
2023-01-23T15:17:54.886Z,104010.81
2023-01-23T15:20:43.057Z,104016.03
2023-01-23T15:23:28.151Z,104016.03
2023-01-23T15:26:19.691Z,104016.94
2023-01-23T15:28:56.077Z,104023.84
2023-01-23T15:31:28.673Z,104022.97
2023-01-23T15:33:57.538Z,104023.84
2023-01-23T15:36:29.734Z,104013.41
2023-01-23T15:38:59.301Z,104015.16
2023-01-23T15:41:46.227Z,104015.16
2023-01-23T15:44:14.647Z,104016.00
2023-01-23T15:46:41.730Z,104017.78
2023-01-23T15:49:16.478Z,104016.91
2023-01-23T15:51:51.175Z,104012.56
2023-01-23T15:54:24.778Z,104016.03
2023-01-23T15:57:00.496Z,104013.44
2023-01-23T15:59:34.244Z,104012.59
2023-01-23T16:02:00.869Z,104013.44
2023-01-23T16:04:27.264Z,104012.63
2023-01-23T16:06:53.954Z,104009.13
2023-01-23T16:09:30.504Z,104010.91
2023-01-23T16:12:00.794Z,104012.56
2023-01-23T16:14:27.689Z,104014.34
2023-01-23T16:16:56.681Z,104012.56
2023-01-23T16:19:24.529Z,104011.63
2023-01-23T16:22:03.395Z,104007.25
2023-01-23T16:24:36.544Z,104017.56
2023-01-23T16:27:03.925Z,104016.69
2023-01-23T16:29:32.932Z,104025.34
2023-01-23T16:32:01.098Z,104020.06
2023-01-23T16:34:27.985Z,104022.66
2023-01-23T16:36:59.102Z,104032.19
2023-01-23T16:39:29.382Z,104038.25
2023-01-23T16:41:55.902Z,104033.91
2023-01-23T16:44:25.899Z,104040.84
2023-01-23T16:46:53.280Z,104039.16
2023-01-23T16:49:20.388Z,104036.56
2023-01-23T16:52:01.526Z,104046.06
2023-01-23T16:54:28.129Z,104053.84
2023-01-23T16:56:56.996Z,104052.09
2023-01-23T16:59:43.639Z,104048.66
2023-01-23T17:02:28.746Z,104053.84
2023-01-23T17:04:55.205Z,104052.09
2023-01-23T17:07:21.624Z,104052.91
2023-01-23T17:09:49.150Z,104050.28
2023-01-23T17:12:20.809Z,104054.66
2023-01-23T17:14:48.479Z,104052.06
2023-01-23T17:17:19.064Z,104054.66
2023-01-23T17:19:45.990Z,104052.06
2023-01-23T17:22:21.274Z,104055.50
2023-01-23T17:24:47.948Z,104058.09
2023-01-23T17:27:14.315Z,104054.63
2023-01-23T17:29:40.701Z,104061.59
2023-01-23T17:32:07.206Z,104057.25
2023-01-23T17:34:48.685Z,104061.59
2023-01-23T17:37:21.062Z,104068.50
2023-01-23T17:39:47.459Z,104065.97
2023-01-23T17:42:14.864Z,104069.44
2023-01-23T17:44:41.285Z,104066.84
2023-01-23T17:47:12.012Z,104075.56
2023-01-23T17:49:39.269Z,104070.28
2023-01-23T17:52:06.363Z,104078.09
2023-01-23T17:54:33.023Z,104080.69
2023-01-23T17:56:59.469Z,104087.66
2023-01-23T17:59:25.885Z,104082.47
2023-01-23T18:01:52.407Z,104086.78
2023-01-23T18:04:21.335Z,104085.06
2023-01-23T18:06:49.039Z,104084.16
2023-01-23T18:09:16.344Z,104080.69
2023-01-23T18:11:52.380Z,104085.03
2023-01-23T18:14:42.042Z,104092.81
2023-01-23T18:17:51.591Z,104089.38
2023-01-23T18:20:21.553Z,104081.59
2023-01-23T18:22:48.768Z,104092.84
2023-01-23T18:25:19.874Z,104086.81
2023-01-23T18:27:51.554Z,104089.38
2023-01-23T18:30:23.865Z,104093.69
2023-01-23T18:33:00.771Z,104087.66
2023-01-23T18:35:42.299Z,104091.09
2023-01-23T18:38:17.975Z,104095.44
2023-01-23T18:41:05.617Z,104099.75
2023-01-23T18:43:38.943Z,104094.56
2023-01-23T18:46:11.737Z,104093.69
2023-01-23T18:48:41.226Z,104092.84
2023-01-23T18:51:19.868Z,104097.16
2023-01-23T18:54:01.464Z,104091.09
2023-01-23T18:56:38.410Z,104085.88
2023-01-23T18:59:25.212Z,104089.38
2023-01-23T19:02:03.650Z,104087.63
2023-01-23T19:04:34.529Z,104091.97
2023-01-23T19:07:01.268Z,104091.97
2023-01-23T19:09:31.822Z,104098.88
2023-01-23T19:12:29.570Z,104098.00
2023-01-23T19:15:02.178Z,104090.09
2023-01-23T19:18:06.381Z,104102.28
2023-01-23T19:20:43.926Z,104095.38
2023-01-23T19:23:33.882Z,104098.00
2023-01-23T19:26:00.521Z,104092.78
2023-01-23T19:28:27.099Z,104091.91
2023-01-23T19:30:53.850Z,104090.19
2023-01-23T19:33:21.256Z,104091.97
2023-01-23T19:35:48.483Z,104098.00
2023-01-23T19:38:15.238Z,104097.09
2023-01-23T19:40:42.255Z,104097.97
2023-01-23T19:43:16.811Z,104103.16
2023-01-23T19:45:45.085Z,104102.25
2023-01-23T19:48:12.005Z,104110.06
2023-01-23T19:50:38.773Z,104108.31
2023-01-23T19:53:05.695Z,104113.56
2023-01-23T19:55:35.167Z,104113.50
2023-01-23T19:58:01.956Z,104113.50
2023-01-23T20:00:31.346Z,104120.47
2023-01-23T20:02:58.386Z,104123.06
2023-01-23T20:05:25.832Z,104117.00
2023-01-23T20:07:53.817Z,104117.88
2023-01-23T20:10:20.725Z,104126.50
2023-01-23T20:12:51.836Z,104125.63
2023-01-23T20:15:21.286Z,104126.47
2023-01-23T20:17:48.077Z,104123.88
2023-01-23T20:20:14.886Z,104129.97
2023-01-23T20:22:43.102Z,104129.09
2023-01-23T20:25:12.667Z,104132.59
2023-01-23T20:27:39.965Z,104124.78
2023-01-23T20:30:10.796Z,104124.75
2023-01-23T20:32:37.984Z,104133.44
2023-01-23T20:35:04.808Z,104135.19
2023-01-23T20:37:31.233Z,104139.56
2023-01-23T20:39:57.785Z,104133.56
2023-01-23T20:42:24.276Z,104133.50
2023-01-23T20:44:50.632Z,104134.38
2023-01-23T20:47:17.079Z,104136.19
2023-01-23T20:49:43.480Z,104136.09
2023-01-23T20:52:28.543Z,104133.44
2023-01-23T20:54:54.852Z,104128.28
2023-01-23T20:57:21.246Z,104136.06
2023-01-23T20:59:47.727Z,104129.19
2023-01-23T21:02:22.777Z,104133.56
2023-01-23T21:04:50.239Z,104130.94
2023-01-23T21:07:17.598Z,104130.94
2023-01-23T21:09:45.398Z,104129.19
2023-01-23T21:12:12.049Z,104129.19
2023-01-23T21:14:38.457Z,104134.28
2023-01-23T21:17:05.541Z,104126.50
2023-01-23T21:19:32.793Z,104128.22
2023-01-23T21:21:59.187Z,104133.44
2023-01-23T21:24:25.727Z,104135.09
2023-01-23T21:26:52.484Z,104136.00
2023-01-23T21:29:18.910Z,104141.22
2023-01-23T21:31:45.360Z,104147.28
2023-01-23T21:34:13.860Z,104146.44
2023-01-23T21:36:42.118Z,104142.09
2023-01-23T21:39:10.644Z,104133.44
2023-01-23T21:41:37.048Z,104136.97
2023-01-23T21:44:03.435Z,104133.44
2023-01-23T21:46:29.864Z,104132.56
2023-01-23T21:48:56.231Z,104131.66
2023-01-23T21:51:25.120Z,104133.44
2023-01-23T21:53:51.705Z,104129.06
2023-01-23T21:56:20.092Z,104129.97
2023-01-23T21:58:47.201Z,104128.22
2023-01-23T22:01:31.995Z,104144.69
2023-01-23T22:04:09.007Z,104136.91
2023-01-23T22:06:36.995Z,104139.50
2023-01-23T22:09:04.423Z,104146.41
2023-01-23T22:11:30.775Z,104150.66
2023-01-23T22:13:57.696Z,104143.69
2023-01-23T22:16:40.174Z,104147.16
2023-01-23T22:19:15.541Z,104154.97
2023-01-23T22:21:43.315Z,104150.63
2023-01-23T22:24:09.742Z,104151.56
2023-01-23T22:26:36.077Z,104144.63
2023-01-23T22:29:02.483Z,104141.19
2023-01-23T22:31:28.992Z,104149.00
2023-01-23T22:33:55.504Z,104157.63
2023-01-23T22:36:21.894Z,104151.59
2023-01-23T22:38:52.947Z,104157.66
2023-01-23T22:41:19.518Z,104149.88
2023-01-23T22:43:45.979Z,104143.81
2023-01-23T22:46:15.526Z,104153.28
2023-01-23T22:48:42.300Z,104157.63
2023-01-23T22:51:15.471Z,104157.59
2023-01-23T22:53:41.860Z,104154.97
2023-01-23T22:56:08.531Z,104148.00
2023-01-23T22:58:35.620Z,104151.47
2023-01-23T23:01:02.144Z,104142.81
2023-01-23T23:03:31.820Z,104141.06
2023-01-23T23:06:03.795Z,104146.31
2023-01-23T23:08:30.960Z,104144.59
2023-01-23T23:10:58.208Z,104139.38
2023-01-23T23:13:24.642Z,104148.00
2023-01-23T23:15:51.031Z,104143.66
2023-01-23T23:18:17.360Z,104152.47
2023-01-23T23:20:43.753Z,104152.47
2023-01-23T23:23:10.063Z,104148.06
2023-01-23T23:25:36.514Z,104152.44
2023-01-23T23:28:03.540Z,104148.06
2023-01-23T23:30:29.943Z,104153.25
2023-01-23T23:32:56.256Z,104147.09
2023-01-23T23:35:22.845Z,104150.59
2023-01-23T23:37:49.477Z,104152.31
2023-01-23T23:40:16.151Z,104153.25
2023-01-23T23:42:42.496Z,104157.63
2023-01-23T23:45:09.397Z,104160.28
2023-01-23T23:47:35.710Z,104158.56
2023-01-23T23:50:02.088Z,104155.03
2023-01-23T23:52:28.458Z,104154.09
2023-01-23T23:54:54.794Z,104148.91
2023-01-23T23:57:21.209Z,104146.31
2023-01-23T23:59:47.665Z,104141.09
